Back to Top

Language: 

My Weather Underground Personal Weather Station Historical Data with Graphs...

Delerius Weather Station Historical Data
Daily Summary for December 28, 2017 Units:  Metric    English   Both
« Previous Day
Next Day »
Daily Weekly Monthly Yearly Custom
  High: Low: Average:
Temperature: 5.4 °C -0.4 °C 2.3 °C
Dew Point: 1.9 °C -2.6 °C -0.2 °C
Humidity: 92 % 74 % 84 %
Wind Speed: 25.7 km/h 0 km/h 13.4 km/h
Wind Gust: 40.2 km/h - -
Wind:- - WNW
Pressure: 1003.3 hPa 997.2 hPa -
Precipitation: 0 mm    
Historical Graphs
 
 
Tabular Data for December 28, 2017
Time Temperature Dew Point Pressure Wind Wind Speed Wind Gust Humidity Rainfall Rate (Hourly) solar Conditions
00:04 0.4 °C -2.2 °C 997.5 hPa WNW 12.9 km/h 17.7 km/h 83 % 0 mm 0 W/m2
00:05 0.4 °C -2.2 °C 997.5 hPa WNW 12.9 km/h 19.3 km/h 83 % 0 mm 0 W/m2
00:10 0.4 °C -2 °C 997.5 hPa WNW 9.7 km/h 16.1 km/h 84 % 0 mm 0 W/m2
00:11 0.4 °C -2 °C 997.5 hPa WNW 11.3 km/h 17.7 km/h 84 % 0 mm 0 W/m2
00:16 0.5 °C -1.9 °C 997.5 hPa NW 8 km/h 12.9 km/h 84 % 0 mm 0 W/m2
00:18 0.5 °C -1.9 °C 997.5 hPa NW 9.7 km/h 16.1 km/h 84 % 0 mm 0 W/m2
00:22 0.5 °C -1.9 °C 997.5 hPa NW 9.7 km/h 19.3 km/h 84 % 0 mm 0 W/m2
00:24 0.5 °C -1.9 °C 997.5 hPa NW 11.3 km/h 19.3 km/h 84 % 0 mm 0 W/m2
00:29 0.6 °C -1.9 °C 997.5 hPa WNW 11.3 km/h 17.7 km/h 83 % 0 mm 0 W/m2
00:34 0.6 °C -1.9 °C 997.9 hPa WNW 12.9 km/h 17.7 km/h 83 % 0 mm 0 W/m2
00:39 0.6 °C -1.9 °C 997.9 hPa WNW 11.3 km/h 14.5 km/h 83 % 0 mm 0 W/m2
00:40 0.6 °C -1.9 °C 997.9 hPa WNW 11.3 km/h 14.5 km/h 83 % 0 mm 0 W/m2
00:45 0.5 °C -2.1 °C 997.9 hPa WNW 9.7 km/h 14.5 km/h 83 % 0 mm 0 W/m2
00:46 0.5 °C -2.1 °C 997.9 hPa WNW 9.7 km/h 14.5 km/h 83 % 0 mm 0 W/m2
00:47 0.4 °C -2.2 °C 997.9 hPa WNW 11.3 km/h 16.1 km/h 83 % 0 mm 0 W/m2
00:51 0.4 °C -2.2 °C 997.5 hPa WNW 11.3 km/h 16.1 km/h 83 % 0 mm 0 W/m2
00:56 0.3 °C -2.2 °C 997.5 hPa WNW 11.3 km/h 19.3 km/h 83 % 0 mm 0 W/m2
01:01 0.3 °C -2.2 °C 997.9 hPa WNW 12.9 km/h 17.7 km/h 83 % 0 mm 0 W/m2
01:04 0.3 °C -2.2 °C 997.9 hPa WNW 12.9 km/h 17.7 km/h 83 % 0 mm 0 W/m2
01:09 0.2 °C -2.3 °C 997.5 hPa WNW 11.3 km/h 16.1 km/h 83 % 0 mm 0 W/m2
01:11 0.2 °C -2.2 °C 997.9 hPa WNW 12.9 km/h 16.1 km/h 84 % 0 mm 0 W/m2
01:15 0.2 °C -2.2 °C 997.9 hPa WNW 11.3 km/h 14.5 km/h 84 % 0 mm 0 W/m2
01:18 0.2 °C -2.2 °C 997.9 hPa WNW 9.7 km/h 12.9 km/h 84 % 0 mm 0 W/m2
01:21 0.2 °C -2.2 °C 997.9 hPa WNW 9.7 km/h 11.3 km/h 84 % 0 mm 0 W/m2
01:26 0.1 °C -2.3 °C 997.9 hPa WNW 8 km/h 11.3 km/h 84 % 0 mm 0 W/m2
01:28 0 °C -2.4 °C 997.9 hPa WNW 6.4 km/h 9.7 km/h 84 % 0 mm 0 W/m2
01:33 -0.1 °C -2.5 °C 997.9 hPa WNW 9.7 km/h 14.5 km/h 84 % 0 mm 0 W/m2
01:34 -0.2 °C -2.6 °C 997.9 hPa WNW 9.7 km/h 14.5 km/h 84 % 0 mm 0 W/m2
01:39 -0.2 °C -2.4 °C 997.9 hPa WNW 9.7 km/h 12.9 km/h 85 % 0 mm 0 W/m2
01:40 -0.2 °C -2.4 °C 997.9 hPa WNW 9.7 km/h 12.9 km/h 85 % 0 mm 0 W/m2
01:41 -0.3 °C -2.5 °C 997.9 hPa WNW 11.3 km/h 12.9 km/h 85 % 0 mm 0 W/m2
01:46 -0.3 °C -2.3 °C 997.9 hPa WNW 9.7 km/h 14.5 km/h 86 % 0 mm 0 W/m2
01:51 -0.4 °C -2.4 °C 997.9 hPa WNW 11.3 km/h 16.1 km/h 86 % 0 mm 0 W/m2
01:54 -0.4 °C -2.4 °C 997.9 hPa WNW 11.3 km/h 16.1 km/h 86 % 0 mm 0 W/m2
01:57 -0.3 °C -2.2 °C 997.9 hPa WNW 11.3 km/h 16.1 km/h 87 % 0 mm 0 W/m2
02:03 -0.3 °C -2.2 °C 997.9 hPa WNW 9.7 km/h 16.1 km/h 87 % 0 mm 0 W/m2
02:05 -0.3 °C -2.2 °C 997.9 hPa WNW 8 km/h 12.9 km/h 87 % 0 mm 0 W/m2
02:09 -0.2 °C -2.1 °C 997.9 hPa WNW 8 km/h 12.9 km/h 87 % 0 mm 0 W/m2
02:14 -0.2 °C -2.1 °C 997.9 hPa WNW 8 km/h 12.9 km/h 87 % 0 mm 0 W/m2
02:19 -0.1 °C -2 °C 997.9 hPa WNW 8 km/h 12.9 km/h 87 % 0 mm 0 W/m2
02:20 -0.1 °C -2 °C 997.9 hPa WNW 8 km/h 16.1 km/h 87 % 0 mm 0 W/m2
02:25 0 °C -1.9 °C 997.9 hPa WNW 9.7 km/h 14.5 km/h 87 % 0 mm 0 W/m2
02:30 0.1 °C -1.8 °C 997.5 hPa West 9.7 km/h 12.9 km/h 87 % 0 mm 0 W/m2
02:33 0.1 °C -1.9 °C 997.5 hPa West 6.4 km/h 11.3 km/h 86 % 0 mm 0 W/m2
02:35 0.2 °C -1.9 °C 997.5 hPa West 6.4 km/h 14.5 km/h 86 % 0 mm 0 W/m2
02:40 0.3 °C -1.8 °C 997.9 hPa WNW 8 km/h 14.5 km/h 86 % 0 mm 0 W/m2
02:42 0.3 °C -1.9 °C 997.5 hPa WNW 8 km/h 12.9 km/h 85 % 0 mm 0 W/m2
02:47 0.3 °C -1.9 °C 997.5 hPa West 11.3 km/h 17.7 km/h 85 % 0 mm 0 W/m2
02:49 0.3 °C -1.9 °C 997.5 hPa West 11.3 km/h 20.9 km/h 85 % 0 mm 0 W/m2
02:54 0.4 °C -2 °C 997.5 hPa WNW 11.3 km/h 20.9 km/h 84 % 0 mm 0 W/m2
02:56 0.5 °C -1.9 °C 997.5 hPa WNW 11.3 km/h 17.7 km/h 84 % 0 mm 0 W/m2
03:02 0.6 °C -1.8 °C 997.5 hPa WNW 8 km/h 17.7 km/h 84 % 0 mm 0 W/m2
03:04 0.6 °C -1.9 °C 997.5 hPa WNW 9.7 km/h 17.7 km/h 83 % 0 mm 0 W/m2
03:06 0.7 °C -1.8 °C 997.5 hPa WNW 6.4 km/h 11.3 km/h 83 % 0 mm 0 W/m2
03:09 0.7 °C -1.8 °C 997.5 hPa WNW 11.3 km/h 19.3 km/h 83 % 0 mm 0 W/m2
03:16 0.8 °C -1.6 °C 997.5 hPa WNW 11.3 km/h 14.5 km/h 84 % 0 mm 0 W/m2
03:19 0.8 °C -1.6 °C 997.5 hPa WNW 12.9 km/h 22.5 km/h 84 % 0 mm 0 W/m2
03:20 0.8 °C -1.6 °C 997.5 hPa WNW 11.3 km/h 19.3 km/h 84 % 0 mm 0 W/m2
03:25 0.9 °C -1.5 °C 997.5 hPa WNW 12.9 km/h 19.3 km/h 84 % 0 mm 0 W/m2
03:26 0.9 °C -1.5 °C 997.5 hPa WNW 11.3 km/h 19.3 km/h 84 % 0 mm 0 W/m2
03:30 1.1 °C -1.3 °C 997.2 hPa NW 11.3 km/h 20.9 km/h 84 % 0 mm 0 W/m2
03:35 1.1 °C -1.3 °C 997.2 hPa WNW 9.7 km/h 14.5 km/h 84 % 0 mm 0 W/m2
03:36 1.1 °C -1.3 °C 997.2 hPa WNW 11.3 km/h 19.3 km/h 84 % 0 mm 0 W/m2
03:41 1.1 °C -1.3 °C 997.2 hPa WNW 12.9 km/h 17.7 km/h 84 % 0 mm 0 W/m2
03:42 1.1 °C -1.3 °C 997.5 hPa WNW 12.9 km/h 17.7 km/h 84 % 0 mm 0 W/m2
03:47 1.2 °C -1.1 °C 997.5 hPa WNW 16.1 km/h 24.1 km/h 85 % 0 mm 0 W/m2
03:52 1.2 °C -1.1 °C 997.2 hPa WNW 16.1 km/h 24.1 km/h 85 % 0 mm 0 W/m2
03:53 1.2 °C -1.1 °C 997.2 hPa WNW 16.1 km/h 24.1 km/h 85 % 0 mm 0 W/m2
03:58 1.3 °C -0.9 °C 997.2 hPa WNW 14.5 km/h 24.1 km/h 85 % 0 mm 0 W/m2
04:03 1.4 °C -0.8 °C 997.2 hPa WNW 11.3 km/h 20.9 km/h 85 % 0 mm 0 W/m2
04:05 1.4 °C -1 °C 997.2 hPa WNW 9.7 km/h 20.9 km/h 84 % 0 mm 0 W/m2
04:09 1.4 °C -1 °C 997.2 hPa WNW 11.3 km/h 17.7 km/h 84 % 0 mm 0 W/m2
04:14 1.4 °C -0.8 °C 997.2 hPa WNW 16.1 km/h 30.6 km/h 85 % 0 mm 0 W/m2
04:16 1.5 °C -0.7 °C 997.2 hPa WNW 17.7 km/h 30.6 km/h 85 % 0 mm 0 W/m2
04:21 1.6 °C -0.7 °C 997.2 hPa WNW 16.1 km/h 24.1 km/h 85 % 0 mm 0 W/m2
04:22 1.6 °C -0.7 °C 997.2 hPa WNW 16.1 km/h 24.1 km/h 85 % 0 mm 0 W/m2
04:27 1.7 °C -0.6 °C 997.5 hPa WNW 12.9 km/h 29 km/h 85 % 0 mm 0 W/m2
04:29 1.7 °C -0.6 °C 997.5 hPa WNW 14.5 km/h 20.9 km/h 85 % 0 mm 0 W/m2
04:34 1.7 °C -0.6 °C 997.5 hPa WNW 14.5 km/h 22.5 km/h 85 % 0 mm 0 W/m2
04:37 1.7 °C -0.6 °C 997.5 hPa WNW 14.5 km/h 22.5 km/h 85 % 0 mm 0 W/m2
04:42 1.7 °C -0.7 °C 997.5 hPa WNW 14.5 km/h 24.1 km/h 84 % 0 mm 0 W/m2
04:44 1.7 °C -0.7 °C 997.5 hPa WNW 16.1 km/h 24.1 km/h 84 % 0 mm 0 W/m2
04:45 1.7 °C -0.7 °C 997.5 hPa WNW 16.1 km/h 24.1 km/h 84 % 0 mm 0 W/m2
04:50 1.7 °C -0.7 °C 997.5 hPa WNW 16.1 km/h 24.1 km/h 84 % 0 mm 0 W/m2
04:51 1.7 °C -0.7 °C 997.5 hPa WNW 16.1 km/h 24.1 km/h 84 % 0 mm 0 W/m2
04:53 1.8 °C -0.6 °C 997.5 hPa WNW 17.7 km/h 25.7 km/h 84 % 0 mm 0 W/m2
04:56 1.8 °C -0.6 °C 997.5 hPa WNW 16.1 km/h 24.1 km/h 84 % 0 mm 0 W/m2
05:02 1.8 °C -0.6 °C 997.5 hPa WNW 16.1 km/h 24.1 km/h 84 % 0 mm 0 W/m2
05:07 1.8 °C -0.6 °C 997.5 hPa WNW 17.7 km/h 25.7 km/h 84 % 0 mm 0 W/m2
05:09 1.8 °C -0.6 °C 997.5 hPa WNW 17.7 km/h 29 km/h 84 % 0 mm 0 W/m2
05:11 1.8 °C -0.6 °C 997.2 hPa WNW 19.3 km/h 29 km/h 84 % 0 mm 0 W/m2
05:14 1.8 °C -0.6 °C 997.5 hPa WNW 16.1 km/h 25.7 km/h 84 % 0 mm 0 W/m2
05:17 1.8 °C -0.6 °C 997.5 hPa WNW 17.7 km/h 32.2 km/h 84 % 0 mm 0 W/m2
05:20 1.8 °C -0.6 °C 997.5 hPa WNW 19.3 km/h 29 km/h 84 % 0 mm 0 W/m2
05:21 1.8 °C -0.6 °C 997.5 hPa WNW 17.7 km/h 22.5 km/h 84 % 0 mm 0 W/m2
05:26 1.8 °C -0.6 °C 997.2 hPa WNW 17.7 km/h 25.7 km/h 84 % 0 mm 0 W/m2
05:27 1.8 °C -0.6 °C 997.2 hPa WNW 16.1 km/h 24.1 km/h 84 % 0 mm 0 W/m2
05:31 1.8 °C -0.6 °C 997.2 hPa WNW 19.3 km/h 25.7 km/h 84 % 0 mm 0 W/m2
05:32 1.8 °C -0.6 °C 997.2 hPa WNW 19.3 km/h 29 km/h 84 % 0 mm 0 W/m2
05:37 1.8 °C -0.4 °C 997.2 hPa WNW 19.3 km/h 35.4 km/h 85 % 0 mm 0 W/m2
05:42 1.8 °C -0.4 °C 997.5 hPa WNW 19.3 km/h 29 km/h 85 % 0 mm 0 W/m2
05:43 1.8 °C -0.4 °C 997.5 hPa WNW 19.3 km/h 29 km/h 85 % 0 mm 0 W/m2
05:48 1.9 °C -0.3 °C 997.5 hPa WNW 17.7 km/h 29 km/h 85 % 0 mm 0 W/m2
05:49 1.9 °C -0.3 °C 997.5 hPa WNW 17.7 km/h 29 km/h 85 % 0 mm 0 W/m2
05:54 1.9 °C -0.3 °C 997.5 hPa WNW 20.9 km/h 30.6 km/h 85 % 0 mm 0 W/m2
05:56 2 °C -0.3 °C 997.5 hPa WNW 19.3 km/h 29 km/h 85 % 0 mm 0 W/m2
05:59 2 °C -0.3 °C 997.5 hPa WNW 17.7 km/h 25.7 km/h 85 % 0 mm 0 W/m2
06:02 2 °C -0.3 °C 997.5 hPa WNW 14.5 km/h 24.1 km/h 85 % 0 mm 0 W/m2
06:05 2.1 °C -0.2 °C 997.5 hPa WNW 14.5 km/h 24.1 km/h 85 % 0 mm 0 W/m2
06:08 2.1 °C 0 °C 997.5 hPa WNW 12.9 km/h 17.7 km/h 86 % 0 mm 0 W/m2
06:12 2.1 °C 0 °C 997.5 hPa West 12.9 km/h 20.9 km/h 86 % 0 mm 0 W/m2
06:14 2.1 °C 0 °C 997.5 hPa WNW 16.1 km/h 29 km/h 86 % 0 mm 0 W/m2
06:18 2.1 °C 0 °C 997.5 hPa WNW 12.9 km/h 19.3 km/h 86 % 0 mm 0 W/m2
06:21 2.1 °C 0 °C 997.5 hPa WNW 14.5 km/h 24.1 km/h 86 % 0 mm 0 W/m2
06:26 2.1 °C 0 °C 997.5 hPa WNW 17.7 km/h 24.1 km/h 86 % 0 mm 0 W/m2
06:27 2.1 °C 0 °C 997.5 hPa WNW 14.5 km/h 22.5 km/h 86 % 0 mm 0 W/m2
06:32 2.2 °C 0.1 °C 997.5 hPa WNW 17.7 km/h 25.7 km/h 86 % 0 mm 0 W/m2
06:33 2.2 °C 0.1 °C 997.5 hPa WNW 19.3 km/h 29 km/h 86 % 0 mm 0 W/m2
06:35 2.2 °C 0.1 °C 997.5 hPa West 20.9 km/h 38.6 km/h 86 % 0 mm 0 W/m2
06:39 2.3 °C 0.2 °C 997.5 hPa West 20.9 km/h 40.2 km/h 86 % 0 mm 0 W/m2
06:44 2.3 °C 0.1 °C 997.9 hPa WNW 19.3 km/h 32.2 km/h 85 % 0 mm 0 W/m2
06:49 2.2 °C -0.1 °C 997.5 hPa WNW 17.7 km/h 29 km/h 85 % 0 mm 0 W/m2
06:51 2.2 °C -0.1 °C 997.9 hPa West 16.1 km/h 25.7 km/h 85 % 0 mm 0 W/m2
06:53 2.2 °C -0.1 °C 997.5 hPa WNW 16.1 km/h 22.5 km/h 85 % 0 mm 0 W/m2
06:57 2.2 °C -0.1 °C 997.5 hPa WNW 16.1 km/h 24.1 km/h 85 % 0 mm 0 W/m2
06:58 2.1 °C -0.2 °C 997.5 hPa WNW 16.1 km/h 24.1 km/h 85 % 0 mm 0 W/m2
07:03 2.1 °C 0 °C 997.5 hPa WNW 14.5 km/h 29 km/h 86 % 0 mm 0 W/m2
07:04 2.1 °C 0 °C 997.5 hPa WNW 14.5 km/h 29 km/h 86 % 0 mm 0 W/m2
07:09 2 °C -0.1 °C 997.9 hPa WNW 17.7 km/h 24.1 km/h 86 % 0 mm 0 W/m2
07:14 1.9 °C -0.2 °C 997.9 hPa WNW 14.5 km/h 22.5 km/h 86 % 0 mm 0 W/m2
07:15 1.9 °C -0.2 °C 997.9 hPa WNW 16.1 km/h 24.1 km/h 86 % 0 mm 0 W/m2
07:16 1.9 °C -0.2 °C 997.9 hPa WNW 16.1 km/h 25.7 km/h 86 % 0 mm 0 W/m2
07:21 1.9 °C -0.2 °C 997.9 hPa WNW 17.7 km/h 29 km/h 86 % 0 mm 0 W/m2
07:22 1.9 °C -0.2 °C 997.9 hPa WNW 19.3 km/h 29 km/h 86 % 0 mm 0 W/m2
07:27 1.9 °C -0.1 °C 997.9 hPa West 17.7 km/h 25.7 km/h 87 % 0 mm 0 W/m2
07:32 1.9 °C -0.2 °C 997.9 hPa West 14.5 km/h 22.5 km/h 86 % 0 mm 0 W/m2
07:36 1.9 °C -0.2 °C 997.9 hPa WNW 16.1 km/h 29 km/h 86 % 0 mm 0 W/m2
07:39 1.9 °C -0.2 °C 997.9 hPa WNW 16.1 km/h 22.5 km/h 86 % 0 mm 0 W/m2
07:43 1.9 °C -0.2 °C 997.9 hPa WNW 14.5 km/h 22.5 km/h 86 % 0 mm 0 W/m2
07:44 1.9 °C -0.2 °C 997.9 hPa WNW 14.5 km/h 24.1 km/h 86 % 0 mm 0 W/m2
07:49 1.9 °C -0.2 °C 997.9 hPa West 16.1 km/h 24.1 km/h 86 % 0 mm 0 W/m2
07:50 1.9 °C -0.2 °C 997.9 hPa WNW 16.1 km/h 24.1 km/h 86 % 0 mm 0 W/m2
07:54 1.9 °C -0.2 °C 997.9 hPa WNW 12.9 km/h 20.9 km/h 86 % 0 mm 0 W/m2
07:57 1.9 °C -0.2 °C 998.2 hPa WNW 14.5 km/h 24.1 km/h 86 % 0 mm 0 W/m2
08:01 1.9 °C -0.2 °C 998.2 hPa WNW 17.7 km/h 30.6 km/h 86 % 0 mm 0 W/m2
08:02 1.9 °C -0.2 °C 998.2 hPa WNW 19.3 km/h 30.6 km/h 86 % 0 mm 0 W/m2
08:07 2 °C -0.1 °C 998.2 hPa West 14.5 km/h 22.5 km/h 86 % 0 mm 0 W/m2
08:08 2 °C -0.1 °C 998.2 hPa West 12.9 km/h 20.9 km/h 86 % 0 mm 0 W/m2
08:13 1.9 °C -0.2 °C 998.2 hPa West 12.9 km/h 19.3 km/h 86 % 0 mm 0 W/m2
08:16 1.9 °C -0.2 °C 998.2 hPa West 9.7 km/h 16.1 km/h 86 % 0 mm 5 W/m2
08:21 1.8 °C -0.3 °C 998.2 hPa West 11.3 km/h 25.7 km/h 86 % 0 mm 5 W/m2
08:24 1.8 °C -0.3 °C 998.2 hPa WNW 14.5 km/h 20.9 km/h 86 % 0 mm 7 W/m2
08:26 1.8 °C -0.3 °C 998.2 hPa WNW 16.1 km/h 22.5 km/h 86 % 0 mm 7 W/m2
08:27 1.8 °C -0.3 °C 998.2 hPa WNW 16.1 km/h 25.7 km/h 86 % 0 mm 7 W/m2
08:32 1.9 °C -0.2 °C 998.2 hPa WNW 17.7 km/h 25.7 km/h 86 % 0 mm 9 W/m2
08:34 2 °C -0.1 °C 998.2 hPa WNW 17.7 km/h 25.7 km/h 86 % 0 mm 11 W/m2
08:39 2.1 °C -0.2 °C 998.2 hPa WNW 17.7 km/h 25.7 km/h 85 % 0 mm 12 W/m2
08:44 2.2 °C -0.1 °C 998.2 hPa WNW 19.3 km/h 29 km/h 85 % 0 mm 14 W/m2
08:49 2.2 °C -0.1 °C 998.2 hPa WNW 17.7 km/h 25.7 km/h 85 % 0 mm 16 W/m2
08:50 2.3 °C -0.1 °C 998.2 hPa WNW 17.7 km/h 24.1 km/h 84 % 0 mm 16 W/m2
08:55 2.3 °C -0.1 °C 998.2 hPa WNW 17.7 km/h 25.7 km/h 84 % 0 mm 19 W/m2
09:00 2.3 °C -0.1 °C 998.2 hPa WNW 17.7 km/h 30.6 km/h 84 % 0 mm 21 W/m2
09:02 2.4 °C -0.1 °C 998.2 hPa WNW 19.3 km/h 37 km/h 84 % 0 mm 21 W/m2
09:03 2.4 °C -0.1 °C 998.2 hPa WNW 19.3 km/h 37 km/h 84 % 0 mm 21 W/m2
09:08 2.4 °C -0.1 °C 998.2 hPa WNW 20.9 km/h 32.2 km/h 84 % 0 mm 23 W/m2
09:11 2.6 °C 0.2 °C 998.5 hPa WNW 19.3 km/h 32.2 km/h 84 % 0 mm 25 W/m2
09:16 2.6 °C 0.2 °C 998.5 hPa WNW 17.7 km/h 29 km/h 84 % 0 mm 28 W/m2
09:21 2.7 °C 0.3 °C 998.5 hPa WNW 17.7 km/h 25.7 km/h 84 % 0 mm 28 W/m2
09:22 2.7 °C 0.3 °C 998.5 hPa WNW 16.1 km/h 25.7 km/h 84 % 0 mm 28 W/m2
09:27 2.7 °C 0.3 °C 998.5 hPa WNW 17.7 km/h 25.7 km/h 84 % 0 mm 33 W/m2
09:32 2.8 °C 0.4 °C 998.5 hPa WNW 16.1 km/h 22.5 km/h 84 % 0 mm 107 W/m2
09:36 2.8 °C 0.4 °C 998.9 hPa West 11.3 km/h 22.5 km/h 84 % 0 mm 111 W/m2
09:40 2.8 °C 0.4 °C 998.9 hPa West 12.9 km/h 17.7 km/h 84 % 0 mm 120 W/m2
09:45 2.8 °C 0.4 °C 998.9 hPa West 16.1 km/h 29 km/h 84 % 0 mm 128 W/m2
09:46 2.8 °C 0.4 °C 998.9 hPa WNW 14.5 km/h 29 km/h 84 % 0 mm 130 W/m2
09:51 3 °C 0.6 °C 998.9 hPa West 12.9 km/h 19.3 km/h 84 % 0 mm 137 W/m2
09:52 3.1 °C 0.7 °C 998.9 hPa West 12.9 km/h 17.7 km/h 84 % 0 mm 141 W/m2
09:57 3.2 °C 0.8 °C 998.9 hPa WNW 17.7 km/h 24.1 km/h 84 % 0 mm 148 W/m2
09:59 3.3 °C 0.7 °C 998.9 hPa West 19.3 km/h 25.7 km/h 83 % 0 mm 151 W/m2
10:04 3.4 °C 0.8 °C 998.9 hPa WNW 19.3 km/h 25.7 km/h 83 % 0 mm 160 W/m2
10:07 3.5 °C 0.7 °C 998.9 hPa WNW 14.5 km/h 22.5 km/h 82 % 0 mm 160 W/m2
10:12 3.6 °C 0.8 °C 999.2 hPa WNW 17.7 km/h 25.7 km/h 82 % 0 mm 167 W/m2
10:17 3.7 °C 0.7 °C 999.2 hPa WNW 16.1 km/h 24.1 km/h 81 % 0 mm 172 W/m2
10:22 3.8 °C 0.7 °C 999.2 hPa WNW 19.3 km/h 30.6 km/h 80 % 0 mm 179 W/m2
10:24 3.8 °C 0.7 °C 999.2 hPa WNW 19.3 km/h 30.6 km/h 80 % 0 mm 181 W/m2
10:25 3.9 °C 0.8 °C 999.2 hPa WNW 17.7 km/h 29 km/h 80 % 0 mm 183 W/m2
10:30 3.9 °C 0.8 °C 999.2 hPa West 14.5 km/h 19.3 km/h 80 % 0 mm 186 W/m2
10:35 3.9 °C 0.9 °C 999.2 hPa West 16.1 km/h 24.1 km/h 81 % 0 mm 190 W/m2
10:38 3.9 °C 0.9 °C 999.2 hPa WNW 14.5 km/h 29 km/h 81 % 0 mm 195 W/m2
10:43 4 °C 1.1 °C 999.2 hPa WNW 20.9 km/h 33.8 km/h 81 % 0 mm 200 W/m2
10:45 4.1 °C 0.9 °C 999.2 hPa West 20.9 km/h 37 km/h 80 % 0 mm 206 W/m2
10:46 4.1 °C 0.9 °C 999.2 hPa West 22.5 km/h 37 km/h 80 % 0 mm 206 W/m2
10:50 4.2 °C 1.1 °C 999.2 hPa West 20.9 km/h 38.6 km/h 80 % 0 mm 211 W/m2
10:54 4.2 °C 1.1 °C 999.2 hPa West 17.7 km/h 32.2 km/h 80 % 0 mm 214 W/m2
10:59 4.3 °C 1 °C 999.2 hPa WNW 17.7 km/h 25.7 km/h 79 % 0 mm 220 W/m2
11:00 4.4 °C 1.1 °C 999.2 hPa WNW 20.9 km/h 33.8 km/h 79 % 0 mm 220 W/m2
11:04 4.4 °C 1.1 °C 999.2 hPa WNW 19.3 km/h 30.6 km/h 79 % 0 mm 223 W/m2
11:09 4.6 °C 1.1 °C 999.5 hPa WNW 20.9 km/h 38.6 km/h 78 % 0 mm 225 W/m2
11:10 4.6 °C 1.1 °C 999.2 hPa WNW 22.5 km/h 38.6 km/h 78 % 0 mm 225 W/m2
11:11 4.6 °C 1.1 °C 999.2 hPa WNW 20.9 km/h 38.6 km/h 78 % 0 mm 225 W/m2
11:16 4.7 °C 1.2 °C 999.2 hPa WNW 20.9 km/h 32.2 km/h 78 % 0 mm 230 W/m2
11:21 4.8 °C 1.4 °C 999.5 hPa WNW 19.3 km/h 29 km/h 79 % 0 mm 232 W/m2
11:25 4.9 °C 1.6 °C 999.5 hPa West 19.3 km/h 32.2 km/h 79 % 0 mm 234 W/m2
11:30 4.9 °C 1.6 °C 999.5 hPa West 20.9 km/h 32.2 km/h 79 % 0 mm 237 W/m2
11:31 4.9 °C 1.6 °C 999.2 hPa WNW 22.5 km/h 35.4 km/h 79 % 0 mm 239 W/m2
11:33 4.9 °C 1.6 °C 999.5 hPa WNW 22.5 km/h 38.6 km/h 79 % 0 mm 239 W/m2
11:38 4.9 °C 1.6 °C 999.5 hPa WNW 20.9 km/h 35.4 km/h 79 % 0 mm 243 W/m2
11:42 4.9 °C 1.6 °C 999.5 hPa WNW 22.5 km/h 37 km/h 79 % 0 mm 243 W/m2
11:43 4.9 °C 1.4 °C 999.5 hPa WNW 25.7 km/h 40.2 km/h 78 % 0 mm 241 W/m2
11:48 4.9 °C 1.4 °C 999.5 hPa WNW 25.7 km/h 35.4 km/h 78 % 0 mm 243 W/m2
11:53 5 °C 1.5 °C 999.5 hPa WNW 24.1 km/h 33.8 km/h 78 % 0 mm 243 W/m2
11:58 5.1 °C 1.6 °C 999.5 hPa West 22.5 km/h 32.2 km/h 78 % 0 mm 244 W/m2
12:00 5.1 °C 1.6 °C 999.5 hPa West 20.9 km/h 30.6 km/h 78 % 0 mm 241 W/m2
12:04 5.1 °C 1.4 °C 999.5 hPa WNW 22.5 km/h 40.2 km/h 77 % 0 mm 244 W/m2
12:09 5.2 °C 1.3 °C 999.5 hPa West 22.5 km/h 35.4 km/h 76 % 0 mm 241 W/m2
12:14 5.2 °C 1.3 °C 999.5 hPa West 20.9 km/h 35.4 km/h 76 % 0 mm 241 W/m2
12:15 5.2 °C 1.3 °C 999.5 hPa WNW 20.9 km/h 35.4 km/h 76 % 0 mm 243 W/m2
12:16 5.3 °C 1.6 °C 999.5 hPa West 20.9 km/h 32.2 km/h 77 % 0 mm 243 W/m2
12:21 5.3 °C 1.6 °C 999.5 hPa WNW 20.9 km/h 35.4 km/h 77 % 0 mm 241 W/m2
12:26 5.3 °C 1.6 °C 999.5 hPa West 17.7 km/h 32.2 km/h 77 % 0 mm 241 W/m2
12:31 5.3 °C 1.6 °C 999.5 hPa WNW 24.1 km/h 35.4 km/h 77 % 0 mm 237 W/m2
12:36 5.4 °C 1.9 °C 999.5 hPa West 17.7 km/h 33.8 km/h 78 % 0 mm 241 W/m2
12:41 5.4 °C 1.7 °C 999.5 hPa West 14.5 km/h 25.7 km/h 77 % 0 mm 237 W/m2
12:42 5.4 °C 1.7 °C 999.5 hPa WNW 16.1 km/h 25.7 km/h 77 % 0 mm 236 W/m2
12:45 5.4 °C 1.7 °C 999.5 hPa West 22.5 km/h 35.4 km/h 77 % 0 mm 237 W/m2
12:50 5.4 °C 1.3 °C 999.5 hPa WNW 17.7 km/h 25.7 km/h 75 % 0 mm 234 W/m2
12:51 5.4 °C 1.3 °C 999.5 hPa WNW 17.7 km/h 25.7 km/h 75 % 0 mm 232 W/m2
12:56 5.4 °C 1.1 °C 999.5 hPa West 22.5 km/h 33.8 km/h 74 % 0 mm 230 W/m2
12:57 5.4 °C 1.1 °C 999.5 hPa West 22.5 km/h 33.8 km/h 74 % 0 mm 230 W/m2
13:02 5.4 °C 1.1 °C 999.5 hPa West 20.9 km/h 29 km/h 74 % 0 mm 223 W/m2
13:04 5.4 °C 1.1 °C 999.5 hPa West 19.3 km/h 33.8 km/h 74 % 0 mm 223 W/m2
13:09 5.4 °C 1.1 °C 999.9 hPa WNW 20.9 km/h 35.4 km/h 74 % 0 mm 220 W/m2
13:10 5.4 °C 1.1 °C 999.9 hPa West 20.9 km/h 35.4 km/h 74 % 0 mm 220 W/m2
13:11 5.4 °C 1.1 °C 999.9 hPa West 19.3 km/h 32.2 km/h 74 % 0 mm 220 W/m2
13:16 5.4 °C 1.1 °C 1000.2 hPa West 20.9 km/h 30.6 km/h 74 % 0 mm 214 W/m2
13:17 5.4 °C 1.1 °C 999.9 hPa West 19.3 km/h 30.6 km/h 74 % 0 mm 214 W/m2
13:22 5.4 °C 1.1 °C 1000.2 hPa West 20.9 km/h 32.2 km/h 74 % 0 mm 209 W/m2
13:27 5.3 °C 1.2 °C 999.9 hPa WNW 22.5 km/h 35.4 km/h 75 % 0 mm 202 W/m2
13:31 5.3 °C 1.2 °C 1000.2 hPa West 19.3 km/h 37 km/h 75 % 0 mm 200 W/m2
13:34 5.3 °C 1.2 °C 999.9 hPa West 24.1 km/h 40.2 km/h 75 % 0 mm 193 W/m2
13:38 5.3 °C 1.2 °C 1000.2 hPa WNW 24.1 km/h 37 km/h 75 % 0 mm 190 W/m2
13:41 5.3 °C 1.2 °C 999.9 hPa WNW 22.5 km/h 35.4 km/h 75 % 0 mm 186 W/m2
13:46 5.3 °C 1.2 °C 999.9 hPa West 22.5 km/h 33.8 km/h 75 % 0 mm 181 W/m2
13:48 5.3 °C 1.1 °C 999.9 hPa WNW 20.9 km/h 30.6 km/h 74 % 0 mm 178 W/m2
13:53 5.3 °C 1.2 °C 1000.2 hPa WNW 20.9 km/h 30.6 km/h 75 % 0 mm 172 W/m2
13:55 5.3 °C 1.2 °C 1000.2 hPa WNW 20.9 km/h 35.4 km/h 75 % 0 mm 171 W/m2
14:01 5.3 °C 1.1 °C 1000.2 hPa WNW 20.9 km/h 40.2 km/h 74 % 0 mm 162 W/m2
14:02 5.3 °C 1.1 °C 1000.2 hPa WNW 19.3 km/h 29 km/h 74 % 0 mm 162 W/m2
14:07 5.2 °C 0.9 °C 1000.2 hPa WNW 20.9 km/h 30.6 km/h 74 % 0 mm 151 W/m2
14:08 5.3 °C 1.1 °C 1000.6 hPa WNW 22.5 km/h 37 km/h 74 % 0 mm 149 W/m2
14:13 5.3 °C 1.2 °C 1000.6 hPa WNW 19.3 km/h 30.6 km/h 75 % 0 mm 146 W/m2
14:14 5.3 °C 1.1 °C 1000.6 hPa West 22.5 km/h 37 km/h 74 % 0 mm 146 W/m2
14:19 5.2 °C 0.9 °C 1000.6 hPa WNW 20.9 km/h 32.2 km/h 74 % 0 mm 134 W/m2
14:24 5.2 °C 0.9 °C 1000.6 hPa WNW 17.7 km/h 30.6 km/h 74 % 0 mm 125 W/m2
14:25 5.2 °C 0.9 °C 1000.6 hPa WNW 17.7 km/h 30.6 km/h 74 % 0 mm 125 W/m2
14:29 5.2 °C 1.1 °C 1000.6 hPa WNW 17.7 km/h 24.1 km/h 75 % 0 mm 120 W/m2
14:31 5.2 °C 1.1 °C 1000.6 hPa WNW 17.7 km/h 29 km/h 75 % 0 mm 107 W/m2
14:36 5.2 °C 1.1 °C 1000.6 hPa WNW 17.7 km/h 22.5 km/h 75 % 0 mm 74 W/m2
14:39 5.1 °C 1.1 °C 1000.6 hPa WNW 14.5 km/h 20.9 km/h 75 % 0 mm 102 W/m2
14:44 5.1 °C 1.2 °C 1000.6 hPa WNW 16.1 km/h 24.1 km/h 76 % 0 mm 76 W/m2
14:45 5.1 °C 1.2 °C 1000.6 hPa WNW 16.1 km/h 25.7 km/h 76 % 0 mm 70 W/m2
14:50 4.8 °C 0.9 °C 1000.6 hPa WNW 16.1 km/h 25.7 km/h 76 % 0 mm 44 W/m2
14:53 4.7 °C 0.8 °C 1000.6 hPa WNW 22.5 km/h 33.8 km/h 76 % 0 mm 44 W/m2
14:54 4.7 °C 1 °C 1000.6 hPa WNW 20.9 km/h 33.8 km/h 77 % 0 mm 44 W/m2
14:59 4.5 °C 0.8 °C 1000.6 hPa WNW 16.1 km/h 24.1 km/h 77 % 0 mm 56 W/m2
15:00 4.5 °C 0.8 °C 1000.9 hPa WNW 14.5 km/h 19.3 km/h 77 % 0 mm 35 W/m2
15:05 4.3 °C 0.8 °C 1000.9 hPa WNW 16.1 km/h 24.1 km/h 78 % 0 mm 18 W/m2
15:08 4.3 °C 0.8 °C 1000.9 hPa WNW 12.9 km/h 20.9 km/h 78 % 0 mm 14 W/m2
15:13 4.1 °C 0.8 °C 1000.9 hPa WNW 16.1 km/h 24.1 km/h 79 % 0 mm 21 W/m2
15:15 4.1 °C 0.8 °C 1000.9 hPa WNW 17.7 km/h 24.1 km/h 79 % 0 mm 19 W/m2
15:20 4.1 °C 0.8 °C 1000.9 hPa WNW 17.7 km/h 29 km/h 79 % 0 mm 14 W/m2
15:23 3.9 °C 0.8 °C 1001.2 hPa WNW 16.1 km/h 24.1 km/h 80 % 0 mm 12 W/m2
15:26 3.9 °C 0.8 °C 1000.9 hPa WNW 19.3 km/h 32.2 km/h 80 % 0 mm 12 W/m2
15:31 3.8 °C 0.8 °C 1001.2 hPa WNW 22.5 km/h 32.2 km/h 81 % 0 mm 11 W/m2
15:34 3.8 °C 0.8 °C 1001.2 hPa WNW 20.9 km/h 33.8 km/h 81 % 0 mm 11 W/m2
15:39 3.6 °C 0.8 °C 1001.2 hPa WNW 16.1 km/h 22.5 km/h 82 % 0 mm 9 W/m2
15:41 3.6 °C 0.8 °C 1001.2 hPa WNW 16.1 km/h 25.7 km/h 82 % 0 mm 7 W/m2
15:46 3.4 °C 0.6 °C 1001.2 hPa WNW 16.1 km/h 24.1 km/h 82 % 0 mm 7 W/m2
15:51 3.3 °C 0.5 °C 1001.2 hPa WNW 12.9 km/h 19.3 km/h 82 % 0 mm 5 W/m2
15:55 3.2 °C 0.4 °C 1001.2 hPa WNW 12.9 km/h 19.3 km/h 82 % 0 mm 5 W/m2
16:00 3.1 °C 0.3 °C 1001.6 hPa WNW 11.3 km/h 17.7 km/h 82 % 0 mm 0 W/m2
16:03 3 °C 0.2 °C 1001.6 hPa WNW 12.9 km/h 20.9 km/h 82 % 0 mm 0 W/m2
16:06 2.9 °C -0.1 °C 1001.6 hPa WNW 11.3 km/h 19.3 km/h 81 % 0 mm 0 W/m2
16:11 2.9 °C -0.1 °C 1001.6 hPa West 12.9 km/h 20.9 km/h 81 % 0 mm 0 W/m2
16:12 2.9 °C -0.1 °C 1001.6 hPa West 11.3 km/h 19.3 km/h 81 % 0 mm 0 W/m2
16:15 2.8 °C -0.1 °C 1001.6 hPa WNW 12.9 km/h 20.9 km/h 81 % 0 mm 0 W/m2
16:19 2.8 °C -0.1 °C 1001.6 hPa WNW 14.5 km/h 20.9 km/h 81 % 0 mm 0 W/m2
16:22 2.8 °C -0.1 °C 1001.6 hPa WNW 14.5 km/h 20.9 km/h 81 % 0 mm 0 W/m2
16:27 2.8 °C -0.1 °C 1001.6 hPa WNW 14.5 km/h 24.1 km/h 81 % 0 mm 0 W/m2
16:28 2.8 °C 0.1 °C 1001.6 hPa WNW 14.5 km/h 24.1 km/h 82 % 0 mm 0 W/m2
16:30 2.8 °C 0.1 °C 1001.6 hPa WNW 12.9 km/h 17.7 km/h 82 % 0 mm 0 W/m2
16:35 2.8 °C 0.1 °C 1001.6 hPa WNW 11.3 km/h 16.1 km/h 82 % 0 mm 0 W/m2
16:36 2.8 °C 0.1 °C 1001.6 hPa WNW 11.3 km/h 16.1 km/h 82 % 0 mm 0 W/m2
16:40 2.8 °C 0.1 °C 1001.6 hPa WNW 12.9 km/h 19.3 km/h 82 % 0 mm 0 W/m2
16:41 2.8 °C 0.1 °C 1001.6 hPa WNW 12.9 km/h 19.3 km/h 82 % 0 mm 0 W/m2
16:46 2.7 °C -0.1 °C 1001.6 hPa WNW 11.3 km/h 17.7 km/h 82 % 0 mm 0 W/m2
16:47 2.7 °C 0.1 °C 1001.6 hPa WNW 11.3 km/h 17.7 km/h 83 % 0 mm 0 W/m2
16:49 2.7 °C 0.1 °C 1001.6 hPa WNW 12.9 km/h 22.5 km/h 83 % 0 mm 0 W/m2
16:54 2.7 °C 0.1 °C 1001.6 hPa WNW 8 km/h 14.5 km/h 83 % 0 mm 0 W/m2
16:56 2.6 °C 0 °C 1001.6 hPa WNW 9.7 km/h 14.5 km/h 83 % 0 mm 0 W/m2
16:57 2.6 °C 0.2 °C 1001.6 hPa WNW 9.7 km/h 16.1 km/h 84 % 0 mm 0 W/m2
17:02 2.6 °C 0.2 °C 1001.6 hPa NW 9.7 km/h 14.5 km/h 84 % 0 mm 0 W/m2
17:07 2.5 °C 0.1 °C 1001.9 hPa WNW 9.7 km/h 19.3 km/h 84 % 0 mm 0 W/m2
17:09 2.5 °C 0.1 °C 1001.9 hPa WNW 9.7 km/h 16.1 km/h 84 % 0 mm 0 W/m2
17:13 2.5 °C 0.2 °C 1001.9 hPa WNW 11.3 km/h 16.1 km/h 85 % 0 mm 0 W/m2
17:18 2.5 °C 0.2 °C 1001.9 hPa West 11.3 km/h 19.3 km/h 85 % 0 mm 0 W/m2
17:19 2.5 °C 0.2 °C 1001.9 hPa WNW 11.3 km/h 19.3 km/h 85 % 0 mm 0 W/m2
17:24 2.6 °C 0.3 °C 1001.9 hPa WNW 12.9 km/h 19.3 km/h 85 % 0 mm 0 W/m2
17:29 2.6 °C 0.2 °C 1001.9 hPa WNW 14.5 km/h 20.9 km/h 84 % 0 mm 0 W/m2
17:30 2.6 °C 0.2 °C 1001.9 hPa WNW 14.5 km/h 22.5 km/h 84 % 0 mm 0 W/m2
17:35 2.6 °C 0.2 °C 1001.9 hPa WNW 16.1 km/h 24.1 km/h 84 % 0 mm 0 W/m2
17:37 2.7 °C 0.3 °C 1001.9 hPa WNW 16.1 km/h 24.1 km/h 84 % 0 mm 0 W/m2
17:38 2.7 °C 0.3 °C 1001.9 hPa WNW 17.7 km/h 30.6 km/h 84 % 0 mm 0 W/m2
17:43 2.7 °C 0.1 °C 1002.3 hPa WNW 16.1 km/h 24.1 km/h 83 % 0 mm 0 W/m2
17:44 2.7 °C 0.1 °C 1002.3 hPa WNW 16.1 km/h 24.1 km/h 83 % 0 mm 0 W/m2
17:45 2.7 °C 0.1 °C 1002.3 hPa WNW 17.7 km/h 25.7 km/h 83 % 0 mm 0 W/m2
17:50 2.8 °C 0.2 °C 1002.3 hPa WNW 17.7 km/h 32.2 km/h 83 % 0 mm 0 W/m2
17:51 2.8 °C 0.2 °C 1002.3 hPa WNW 17.7 km/h 32.2 km/h 83 % 0 mm 0 W/m2
17:56 2.8 °C 0.2 °C 1002.3 hPa WNW 19.3 km/h 30.6 km/h 83 % 0 mm 0 W/m2
17:57 2.9 °C 0.3 °C 1002.3 hPa WNW 16.1 km/h 30.6 km/h 83 % 0 mm 0 W/m2
18:02 2.9 °C 0.3 °C 1002.3 hPa WNW 16.1 km/h 22.5 km/h 83 % 0 mm 0 W/m2
18:06 2.9 °C 0.3 °C 1002.3 hPa WNW 19.3 km/h 25.7 km/h 83 % 0 mm 0 W/m2
18:09 2.9 °C 0.3 °C 1002.3 hPa WNW 17.7 km/h 25.7 km/h 83 % 0 mm 0 W/m2
18:14 2.9 °C 0.3 °C 1002.3 hPa West 14.5 km/h 24.1 km/h 83 % 0 mm 0 W/m2
18:15 2.9 °C 0.3 °C 1002.3 hPa WNW 14.5 km/h 22.5 km/h 83 % 0 mm 0 W/m2
18:20 2.8 °C 0.4 °C 1002.6 hPa WNW 12.9 km/h 19.3 km/h 84 % 0 mm 0 W/m2
18:21 2.8 °C 0.4 °C 1002.3 hPa WNW 12.9 km/h 19.3 km/h 84 % 0 mm 0 W/m2
18:23 2.7 °C 0.3 °C 1002.3 hPa WNW 12.9 km/h 19.3 km/h 84 % 0 mm 0 W/m2
18:28 2.7 °C 0.3 °C 1002.3 hPa West 16.1 km/h 24.1 km/h 84 % 0 mm 0 W/m2
18:30 2.6 °C 0.2 °C 1002.3 hPa West 14.5 km/h 22.5 km/h 84 % 0 mm 0 W/m2
18:36 2.6 °C 0.3 °C 1002.3 hPa West 11.3 km/h 19.3 km/h 85 % 0 mm 0 W/m2
18:41 2.5 °C 0.2 °C 1002.3 hPa West 9.7 km/h 14.5 km/h 85 % 0 mm 0 W/m2
18:46 2.4 °C 0.1 °C 1002.3 hPa WNW 6.4 km/h 11.3 km/h 85 % 0 mm 0 W/m2
18:47 2.3 °C 0.1 °C 1002.3 hPa WNW 6.4 km/h 11.3 km/h 85 % 0 mm 0 W/m2
18:49 2.3 °C 0.1 °C 1002.3 hPa West 6.4 km/h 11.3 km/h 85 % 0 mm 0 W/m2
18:54 2.1 °C -0.2 °C 1002.3 hPa WNW 4.8 km/h 9.7 km/h 85 % 0 mm 0 W/m2
18:57 2.1 °C 0 °C 1002.3 hPa West 4.8 km/h 8 km/h 86 % 0 mm 0 W/m2
19:02 1.9 °C -0.2 °C 1002.3 hPa West 6.4 km/h 9.7 km/h 86 % 0 mm 0 W/m2
19:07 1.8 °C -0.3 °C 1002.3 hPa West 6.4 km/h 11.3 km/h 86 % 0 mm 0 W/m2
19:08 1.8 °C -0.3 °C 1002.3 hPa West 6.4 km/h 11.3 km/h 86 % 0 mm 0 W/m2
19:13 1.7 °C -0.2 °C 1002.3 hPa West 6.4 km/h 11.3 km/h 87 % 0 mm 0 W/m2
19:14 1.6 °C -0.3 °C 1002.3 hPa West 6.4 km/h 11.3 km/h 87 % 0 mm 0 W/m2
19:16 1.6 °C -0.3 °C 1002.6 hPa West 4.8 km/h 9.7 km/h 87 % 0 mm 0 W/m2
19:20 1.5 °C -0.4 °C 1002.6 hPa West 6.4 km/h 12.9 km/h 87 % 0 mm 0 W/m2
19:25 1.4 °C -0.4 °C 1002.6 hPa WNW 9.7 km/h 12.9 km/h 88 % 0 mm 0 W/m2
19:27 1.4 °C -0.4 °C 1002.6 hPa WNW 9.7 km/h 14.5 km/h 88 % 0 mm 0 W/m2
19:32 1.3 °C -0.4 °C 1002.6 hPa WNW 9.7 km/h 16.1 km/h 88 % 0 mm 0 W/m2
19:37 1.3 °C -0.4 °C 1002.6 hPa WNW 8 km/h 12.9 km/h 88 % 0 mm 0 W/m2
19:40 1.3 °C -0.4 °C 1002.6 hPa West 9.7 km/h 14.5 km/h 88 % 0 mm 0 W/m2
19:44 1.3 °C -0.4 °C 1002.6 hPa West 9.7 km/h 14.5 km/h 88 % 0 mm 0 W/m2
19:46 1.3 °C -0.4 °C 1002.6 hPa West 6.4 km/h 11.3 km/h 88 % 0 mm 0 W/m2
19:51 1.2 °C -0.4 °C 1002.6 hPa West 9.7 km/h 17.7 km/h 89 % 0 mm 0 W/m2
19:52 1.2 °C -0.4 °C 1002.6 hPa West 9.7 km/h 17.7 km/h 89 % 0 mm 0 W/m2
19:57 1.3 °C -0.3 °C 1002.9 hPa West 8 km/h 12.9 km/h 89 % 0 mm 0 W/m2
20:00 1.3 °C -0.3 °C 1002.9 hPa WNW 11.3 km/h 16.1 km/h 89 % 0 mm 0 W/m2
20:05 1.3 °C -0.3 °C 1002.6 hPa WNW 9.7 km/h 14.5 km/h 89 % 0 mm 0 W/m2
20:06 1.3 °C -0.3 °C 1002.6 hPa West 11.3 km/h 16.1 km/h 89 % 0 mm 0 W/m2
20:14 1.3 °C -0.2 °C 1002.9 hPa West 11.3 km/h 17.7 km/h 90 % 0 mm 0 W/m2
20:19 1.3 °C -0.2 °C 1002.6 hPa West 9.7 km/h 16.1 km/h 90 % 0 mm 0 W/m2
20:24 1.3 °C -0.2 °C 1002.9 hPa West 9.7 km/h 14.5 km/h 90 % 0 mm 0 W/m2
20:29 1.4 °C -0.1 °C 1002.9 hPa West 6.4 km/h 12.9 km/h 90 % 0 mm 0 W/m2
20:30 1.4 °C -0.1 °C 1002.9 hPa West 6.4 km/h 12.9 km/h 90 % 0 mm 0 W/m2
20:35 1.3 °C -0.2 °C 1002.9 hPa WNW 8 km/h 14.5 km/h 90 % 0 mm 0 W/m2
20:37 1.4 °C -0.1 °C 1002.9 hPa WNW 6.4 km/h 11.3 km/h 90 % 0 mm 0 W/m2
20:39 1.4 °C -0.1 °C 1002.9 hPa WNW 8 km/h 11.3 km/h 90 % 0 mm 0 W/m2
20:44 1.3 °C -0.2 °C 1002.9 hPa WNW 3.2 km/h 8 km/h 90 % 0 mm 0 W/m2
20:49 1.3 °C -0.2 °C 1002.9 hPa NW 3.2 km/h 8 km/h 90 % 0 mm 0 W/m2
20:50 1.3 °C -0.2 °C 1002.9 hPa NW 1.6 km/h 3.2 km/h 90 % 0 mm 0 W/m2
20:54 1.3 °C -0.2 °C 1002.9 hPa Calm   1.6 km/h 90 % 0 mm 0 W/m2
20:57 1.2 °C -0.3 °C 1002.9 hPa WNW 1.6 km/h 8 km/h 90 % 0 mm 0 W/m2
21:02 1.1 °C -0.3 °C 1002.9 hPa WNW 1.6 km/h 4.8 km/h 90 % 0 mm 0 W/m2
21:06 1 °C -0.4 °C 1003.3 hPa WNW 1.6 km/h 6.4 km/h 90 % 0 mm 0 W/m2
21:08 0.9 °C -0.6 °C 1003.3 hPa WNW 1.6 km/h 6.4 km/h 90 % 0 mm 0 W/m2
21:13 0.9 °C -0.6 °C 1003.3 hPa Calm     90 % 0 mm 0 W/m2
21:14 0.9 °C -0.6 °C 1003.3 hPa Calm   4.8 km/h 90 % 0 mm 0 W/m2
21:19 0.8 °C -0.7 °C 1003.3 hPa Calm   3.2 km/h 90 % 0 mm 0 W/m2
21:20 0.7 °C -0.8 °C 1003.3 hPa Calm   3.2 km/h 90 % 0 mm 0 W/m2
21:25 0.7 °C -0.8 °C 1003.3 hPa Calm   3.2 km/h 90 % 0 mm 0 W/m2
21:26 0.6 °C -0.8 °C 1003.3 hPa Calm   3.2 km/h 90 % 0 mm 0 W/m2
21:28 0.6 °C -0.8 °C 1003.3 hPa Calm   3.2 km/h 90 % 0 mm 0 W/m2
21:32 0.6 °C -0.7 °C 1003.3 hPa Calm   1.6 km/h 91 % 0 mm 0 W/m2
21:40 0.4 °C -0.9 °C 1003.3 hPa SSW 3.2 km/h 6.4 km/h 91 % 0 mm 0 W/m2
21:42 0.5 °C -0.8 °C 1003.3 hPa SW 1.6 km/h 6.4 km/h 91 % 0 mm 0 W/m2
21:43 0.4 °C -0.9 °C 1003.3 hPa SW 3.2 km/h 8 km/h 91 % 0 mm 0 W/m2
21:48 0.5 °C -0.8 °C 1003.3 hPa WSW 4.8 km/h 8 km/h 91 % 0 mm 0 W/m2
21:50 0.5 °C -0.8 °C 1003.3 hPa West 4.8 km/h 8 km/h 91 % 0 mm 0 W/m2
21:51 0.5 °C -0.8 °C 1003.3 hPa West 4.8 km/h 12.9 km/h 91 % 0 mm 0 W/m2
21:56 0.5 °C -0.8 °C 1003.3 hPa WSW 3.2 km/h 6.4 km/h 91 % 0 mm 0 W/m2
22:01 0.4 °C -0.9 °C 1003.3 hPa West 4.8 km/h 11.3 km/h 91 % 0 mm 0 W/m2
22:04 0.4 °C -0.9 °C 1003.3 hPa WSW 3.2 km/h 6.4 km/h 91 % 0 mm 0 W/m2
22:05 0.4 °C -0.9 °C 1003.3 hPa WSW 3.2 km/h 6.4 km/h 91 % 0 mm 0 W/m2
22:10 0.4 °C -0.9 °C 1003.3 hPa West 6.4 km/h 9.7 km/h 91 % 0 mm 0 W/m2
22:12 0.4 °C -0.9 °C 1003.3 hPa WNW 6.4 km/h 9.7 km/h 91 % 0 mm 0 W/m2
22:17 0.4 °C -0.7 °C 1003.3 hPa West 6.4 km/h 11.3 km/h 92 % 0 mm 0 W/m2
22:23 0.4 °C -0.7 °C 1003.3 hPa West 8 km/h 11.3 km/h 92 % 0 mm 0 W/m2
22:24 0.4 °C -0.7 °C 1003.3 hPa West 8 km/h 11.3 km/h 92 % 0 mm 0 W/m2
22:29 0.4 °C -0.7 °C 1003.3 hPa West 12.9 km/h 22.5 km/h 92 % 0 mm 0 W/m2
22:31 0.6 °C -0.6 °C 1003.3 hPa West 12.9 km/h 22.5 km/h 92 % 0 mm 0 W/m2
22:36 0.8 °C -0.3 °C 1003.3 hPa West 16.1 km/h 19.3 km/h 92 % 0 mm 0 W/m2
22:41 1 °C -0.3 °C 1003.3 hPa WNW 12.9 km/h 16.1 km/h 91 % 0 mm 0 W/m2
22:42 1 °C -0.3 °C 1003.3 hPa WNW 11.3 km/h 16.1 km/h 91 % 0 mm 0 W/m2
22:47 1.1 °C -0.3 °C 1003.3 hPa WNW 9.7 km/h 16.1 km/h 90 % 0 mm 0 W/m2
22:51 1.1 °C -0.3 °C 1002.9 hPa NW 8 km/h 14.5 km/h 90 % 0 mm 0 W/m2
22:53 1.1 °C -0.5 °C 1002.9 hPa NW 8 km/h 14.5 km/h 89 % 0 mm 0 W/m2
22:58 1 °C -0.6 °C 1002.9 hPa NW 6.4 km/h 9.7 km/h 89 % 0 mm 0 W/m2
23:03 0.9 °C -0.7 °C 1002.9 hPa WNW 3.2 km/h 9.7 km/h 89 % 0 mm 0 W/m2
23:06 0.9 °C -0.7 °C 1002.9 hPa NW 1.6 km/h 8 km/h 89 % 0 mm 0 W/m2
23:07 0.9 °C -0.7 °C 1002.9 hPa Calm   6.4 km/h 89 % 0 mm 0 W/m2
23:12 0.8 °C -0.8 °C 1002.9 hPa Calm     89 % 0 mm 0 W/m2
23:13 0.8 °C -0.8 °C 1002.9 hPa Calm     89 % 0 mm 0 W/m2
23:17 0.6 °C -1.2 °C 1002.6 hPa Calm   1.6 km/h 88 % 0 mm 0 W/m2
23:22 0.4 °C -1.3 °C 1002.6 hPa Calm     88 % 0 mm 0 W/m2
23:23 0.4 °C -1.3 °C 1002.6 hPa Calm   1.6 km/h 88 % 0 mm 0 W/m2
23:28 0.3 °C -1.3 °C 1002.6 hPa West 4.8 km/h 11.3 km/h 89 % 0 mm 0 W/m2
23:32 0.3 °C -1.3 °C 1002.6 hPa West 4.8 km/h 8 km/h 89 % 0 mm 0 W/m2
23:37 0.3 °C -1.3 °C 1002.6 hPa West 1.6 km/h 3.2 km/h 89 % 0 mm 0 W/m2
23:41 0.2 °C -1.4 °C 1002.6 hPa Calm   4.8 km/h 89 % 0 mm 0 W/m2
23:46 0.1 °C -1.5 °C 1002.6 hPa Calm   1.6 km/h 89 % 0 mm 0 W/m2
23:47 0.1 °C -1.5 °C 1002.6 hPa Calm   3.2 km/h 89 % 0 mm 0 W/m2
23:52 0 °C -1.6 °C 1002.6 hPa West 3.2 km/h 6.4 km/h 89 % 0 mm 0 W/m2
23:53 0 °C -1.6 °C 1002.6 hPa West 1.6 km/h 3.2 km/h 89 % 0 mm 0 W/m2
23:58 0 °C -1.4 °C 1002.6 hPa West 1.6 km/h 6.4 km/h 90 % 0 mm 0 W/m2
Delerius-Weather
Compliments of Weather Underground - 3 mb

Data updates at regular intervals.